createdAt,value
2023-01-17T00:00:42.569Z,89.81
2023-01-17T00:04:37.640Z,89.76
2023-01-17T00:08:45.258Z,89.78
2023-01-17T00:12:31.734Z,89.47
2023-01-17T00:16:15.606Z,89.25
2023-01-17T00:20:19.251Z,89.53
2023-01-17T00:24:03.833Z,89.66
2023-01-17T00:27:31.875Z,89.97
2023-01-17T00:31:08.994Z,89.78
2023-01-17T00:34:44.982Z,89.99
2023-01-17T00:38:41.661Z,90.11
2023-01-17T00:42:07.299Z,89.88
2023-01-17T00:46:05.930Z,89.90
2023-01-17T00:49:51.581Z,89.92
2023-01-17T00:53:53.323Z,89.86
2023-01-17T00:57:54.788Z,90.05
2023-01-17T01:01:36.879Z,90.13
2023-01-17T01:05:22.341Z,90.28
2023-01-17T01:09:07.036Z,90.55
2023-01-17T01:12:50.395Z,90.60
2023-01-17T01:16:36.231Z,90.49
2023-01-17T01:20:38.910Z,90.49
2023-01-17T01:24:40.121Z,90.32
2023-01-17T01:28:41.649Z,90.27
2023-01-17T01:32:25.213Z,90.29
2023-01-17T01:36:11.174Z,90.37
2023-01-17T01:39:37.790Z,90.21
2023-01-17T01:43:16.424Z,90.32
2023-01-17T01:46:52.660Z,90.31
2023-01-17T01:50:50.895Z,90.33
2023-01-17T01:54:38.790Z,90.17
2023-01-17T01:58:21.249Z,90.12
2023-01-17T02:02:06.786Z,90.06
2023-01-17T02:05:32.302Z,89.96
2023-01-17T02:09:28.762Z,89.99
2023-01-17T02:12:53.299Z,90.09
2023-01-17T02:16:39.210Z,90.02
2023-01-17T02:20:32.685Z,90.09
2023-01-17T02:24:46.153Z,89.59
2023-01-17T02:28:46.546Z,89.35
2023-01-17T02:32:55.133Z,89.28
2023-01-17T02:36:45.593Z,89.41
2023-01-17T02:40:28.085Z,89.48
2023-01-17T02:43:54.363Z,89.79
2023-01-17T02:47:49.807Z,89.76
2023-01-17T02:51:43.674Z,89.56
2023-01-17T02:55:39.482Z,89.52
2023-01-17T02:59:09.036Z,89.45
2023-01-17T03:03:18.391Z,89.60
2023-01-17T03:07:07.446Z,89.48
2023-01-17T03:10:51.754Z,89.49
2023-01-17T03:14:16.478Z,89.67
2023-01-17T03:18:15.244Z,89.61
2023-01-17T03:21:40.610Z,89.46
2023-01-17T03:25:37.682Z,89.35
2023-01-17T03:29:03.499Z,89.07
2023-01-17T03:33:02.370Z,89.05
2023-01-17T03:36:26.622Z,88.93
2023-01-17T03:40:04.807Z,88.90
2023-01-17T03:44:03.895Z,89.15
2023-01-17T03:47:46.647Z,89.06
2023-01-17T03:51:10.447Z,88.77
2023-01-17T03:55:07.278Z,88.65
2023-01-17T03:58:31.404Z,88.11
2023-01-17T04:02:28.402Z,87.86
2023-01-17T04:05:52.395Z,87.97
2023-01-17T04:09:52.002Z,88.03
2023-01-17T04:13:16.785Z,88.15
2023-01-17T04:17:14.107Z,88.18
2023-01-17T04:20:56.516Z,88.04
2023-01-17T04:24:21.862Z,87.90
2023-01-17T04:27:59.642Z,87.84
2023-01-17T04:31:35.765Z,87.71
2023-01-17T04:35:34.689Z,87.59
2023-01-17T04:38:58.731Z,87.71
2023-01-17T04:42:36.376Z,87.87
2023-01-17T04:46:13.570Z,87.83
2023-01-17T04:50:10.971Z,88.18
2023-01-17T04:53:53.148Z,88.10
2023-01-17T04:57:17.926Z,88.27
2023-01-17T05:00:56.139Z,87.88
2023-01-17T05:04:35.678Z,87.92
2023-01-17T05:08:10.091Z,87.48
2023-01-17T05:11:47.873Z,87.68
2023-01-17T05:15:30.749Z,87.65
2023-01-17T05:19:02.922Z,87.70
2023-01-17T05:22:42.760Z,87.94
2023-01-17T05:26:18.129Z,88.03
2023-01-17T05:30:15.332Z,88.11
2023-01-17T05:33:41.583Z,88.25
2023-01-17T05:37:36.216Z,88.08
2023-01-17T05:41:04.865Z,88.03
2023-01-17T05:44:39.235Z,88.00
2023-01-17T05:48:34.711Z,88.07
2023-01-17T05:52:19.948Z,88.28
2023-01-17T05:55:45.433Z,88.49
2023-01-17T05:59:35.969Z,88.54
2023-01-17T06:03:01.499Z,88.48
2023-01-17T06:06:57.586Z,88.07
2023-01-17T06:10:22.777Z,87.82
2023-01-17T06:14:02.051Z,87.61
2023-01-17T06:17:37.515Z,87.78
2023-01-17T06:21:15.778Z,87.74
2023-01-17T06:25:11.218Z,87.76
2023-01-17T06:28:54.907Z,87.57
2023-01-17T06:32:38.289Z,87.67
2023-01-17T06:36:01.816Z,87.78
2023-01-17T06:39:43.307Z,87.88
2023-01-17T06:43:18.319Z,88.00
2023-01-17T06:46:55.295Z,88.05
2023-01-17T06:50:51.323Z,88.32
2023-01-17T06:54:33.901Z,87.96
2023-01-17T06:58:16.923Z,87.89
2023-01-17T07:01:41.514Z,87.85
2023-01-17T07:05:19.479Z,87.89
2023-01-17T07:08:59.065Z,88.13
2023-01-17T07:12:33.609Z,88.14
2023-01-17T07:16:12.223Z,88.43
2023-01-17T07:20:09.885Z,88.56
2023-01-17T07:23:54.307Z,88.47
2023-01-17T07:27:18.991Z,88.60
2023-01-17T07:30:57.409Z,88.22
2023-01-17T07:34:36.418Z,88.05
2023-01-17T07:38:35.798Z,87.93
2023-01-17T07:42:23.971Z,88.01
2023-01-17T07:45:50.892Z,87.93
2023-01-17T07:49:28.148Z,88.09
2023-01-17T07:53:06.947Z,88.30
2023-01-17T07:56:45.915Z,88.51
2023-01-17T08:00:43.297Z,88.69
2023-01-17T08:04:33.992Z,88.74
2023-01-17T08:07:58.158Z,88.79
2023-01-17T08:11:54.343Z,88.64
2023-01-17T08:15:21.367Z,88.71
2023-01-17T08:19:14.497Z,88.39
2023-01-17T08:22:41.606Z,88.30
2023-01-17T08:26:22.141Z,88.25
2023-01-17T08:29:54.124Z,88.45
2023-01-17T08:33:33.798Z,88.64
2023-01-17T08:37:12.907Z,88.64
2023-01-17T08:41:05.955Z,89.15
2023-01-17T08:44:29.910Z,89.04
2023-01-17T08:48:11.041Z,89.06
2023-01-17T08:51:46.879Z,89.07
2023-01-17T08:55:25.939Z,88.74
2023-01-17T08:59:22.051Z,88.54
2023-01-17T09:03:10.006Z,88.55
2023-01-17T09:06:36.931Z,88.49
2023-01-17T09:10:33.104Z,88.63
2023-01-17T09:14:17.072Z,88.49
2023-01-17T09:17:41.590Z,88.75
2023-01-17T09:21:37.359Z,88.69
2023-01-17T09:25:01.946Z,88.42
2023-01-17T09:28:41.136Z,88.17
2023-01-17T09:32:37.833Z,88.03
2023-01-17T09:36:22.244Z,87.98
2023-01-17T09:39:50.829Z,88.17
2023-01-17T09:43:51.021Z,88.24
2023-01-17T09:47:31.771Z,88.30
2023-01-17T09:51:24.213Z,88.30
2023-01-17T09:54:53.499Z,88.24
2023-01-17T09:59:32.754Z,87.83
2023-01-17T10:03:25.035Z,87.75
2023-01-17T10:07:01.207Z,86.95
2023-01-17T10:10:37.317Z,87.08
2023-01-17T10:14:23.082Z,87.20
2023-01-17T10:18:06.459Z,86.88
2023-01-17T10:22:04.275Z,86.67
2023-01-17T10:25:59.884Z,86.15
2023-01-17T10:29:32.824Z,85.88
2023-01-17T10:33:17.915Z,85.80
2023-01-17T10:36:47.508Z,85.49
2023-01-17T10:40:44.061Z,85.48
2023-01-17T10:44:27.282Z,84.63
2023-01-17T10:48:06.060Z,84.02
2023-01-17T10:51:59.605Z,83.56
2023-01-17T10:55:54.174Z,83.49
2023-01-17T10:59:37.557Z,83.28
2023-01-17T11:03:02.782Z,82.94
2023-01-17T11:06:57.540Z,83.21
2023-01-17T11:10:54.190Z,82.34
2023-01-17T11:14:26.861Z,82.73
2023-01-17T11:18:20.252Z,82.02
2023-01-17T11:22:05.931Z,81.04
2023-01-17T11:25:58.172Z,80.35
2023-01-17T11:29:28.616Z,79.37
2023-01-17T11:33:06.077Z,78.86
2023-01-17T11:36:39.644Z,79.09
2023-01-17T11:40:42.670Z,77.85
2023-01-17T11:44:31.263Z,77.34
2023-01-17T11:48:17.953Z,76.68
2023-01-17T11:51:46.714Z,76.31
2023-01-17T11:55:40.684Z,75.13
2023-01-17T11:59:31.366Z,76.08
2023-01-17T12:03:45.641Z,75.19
2023-01-17T12:07:34.581Z,74.60
2023-01-17T12:11:23.922Z,74.88
2023-01-17T12:15:01.468Z,73.56
2023-01-17T12:18:42.969Z,73.15
2023-01-17T12:22:17.181Z,73.45
2023-01-17T12:26:07.683Z,72.17
2023-01-17T12:29:46.462Z,71.65
2023-01-17T12:33:22.011Z,70.50
2023-01-17T12:37:02.535Z,71.27
2023-01-17T12:41:05.211Z,70.85
2023-01-17T12:45:13.370Z,67.97
2023-01-17T12:49:23.385Z,67.28
2023-01-17T12:52:50.025Z,67.84
2023-01-17T12:56:39.348Z,68.31
2023-01-17T13:00:07.373Z,67.67
2023-01-17T13:04:12.653Z,65.99
2023-01-17T13:07:41.106Z,66.82
2023-01-17T13:11:45.518Z,65.53
2023-01-17T13:15:23.191Z,63.04
2023-01-17T13:18:51.584Z,63.50
2023-01-17T13:22:49.007Z,62.95
2023-01-17T13:26:53.590Z,62.05
2023-01-17T13:30:46.274Z,62.01
2023-01-17T13:34:20.119Z,62.32
2023-01-17T13:38:15.130Z,61.10
2023-01-17T13:41:54.880Z,62.30
2023-01-17T13:45:39.050Z,61.44
2023-01-17T13:49:38.069Z,62.47
2023-01-17T13:53:35.810Z,63.09
2023-01-17T13:57:40.029Z,64.08
2023-01-17T14:01:11.483Z,63.32
2023-01-17T14:05:11.370Z,63.56
2023-01-17T14:08:38.928Z,62.65
2023-01-17T14:12:18.029Z,62.92
2023-01-17T14:15:52.865Z,61.04
2023-01-17T14:19:36.381Z,62.53
2023-01-17T14:23:31.635Z,63.58
2023-01-17T14:26:59.802Z,63.13
2023-01-17T14:30:38.104Z,64.05
2023-01-17T14:34:13.902Z,63.93
2023-01-17T14:37:54.338Z,63.93
2023-01-17T14:41:29.897Z,64.93
2023-01-17T14:45:09.198Z,65.25
2023-01-17T14:48:44.467Z,65.80
2023-01-17T14:52:23.607Z,66.18
2023-01-17T14:56:17.708Z,66.26
2023-01-17T14:59:44.022Z,66.48
2023-01-17T15:03:22.676Z,66.60
2023-01-17T15:07:02.067Z,66.74
2023-01-17T15:10:45.616Z,66.62
2023-01-17T15:14:36.844Z,66.79
2023-01-17T15:18:25.165Z,66.40
2023-01-17T15:22:08.298Z,66.99
2023-01-17T15:25:52.959Z,67.09
2023-01-17T15:29:37.530Z,67.23
2023-01-17T15:33:21.305Z,66.92
2023-01-17T15:36:50.486Z,67.26
2023-01-17T15:40:27.228Z,67.08
2023-01-17T15:44:02.549Z,67.42
2023-01-17T15:48:00.819Z,67.52
2023-01-17T15:52:00.940Z,67.98
2023-01-17T15:55:42.759Z,68.38
2023-01-17T15:59:40.947Z,68.44
2023-01-17T16:03:26.432Z,68.21
2023-01-17T16:07:21.619Z,68.47
2023-01-17T16:10:45.707Z,68.69
2023-01-17T16:15:02.543Z,68.73
2023-01-17T16:18:27.649Z,68.85
2023-01-17T16:22:26.435Z,69.64
2023-01-17T16:25:51.014Z,70.07
2023-01-17T16:29:29.321Z,70.57
2023-01-17T16:33:09.839Z,70.60
2023-01-17T16:36:46.409Z,70.66
2023-01-17T16:40:27.188Z,71.29
2023-01-17T16:44:06.083Z,71.30
2023-01-17T16:47:57.098Z,71.50
2023-01-17T16:51:21.445Z,72.01
2023-01-17T16:55:02.604Z,72.56
2023-01-17T16:58:58.042Z,72.81
2023-01-17T17:02:23.155Z,72.66
2023-01-17T17:06:04.446Z,71.99
2023-01-17T17:09:39.179Z,72.17
2023-01-17T17:13:38.761Z,72.47
2023-01-17T17:17:04.615Z,72.71
2023-01-17T17:20:41.106Z,72.49
2023-01-17T17:24:38.433Z,72.50
2023-01-17T17:28:06.104Z,72.02
2023-01-17T17:31:58.675Z,72.04
2023-01-17T17:35:22.602Z,72.40
2023-01-17T17:39:03.559Z,72.73
2023-01-17T17:42:38.402Z,73.11
2023-01-17T17:46:20.365Z,73.50
2023-01-17T17:49:53.981Z,73.39
2023-01-17T17:53:53.077Z,73.20
2023-01-17T17:57:16.772Z,73.33
2023-01-17T18:00:55.011Z,72.91
2023-01-17T18:04:34.036Z,72.91
2023-01-17T18:08:10.885Z,72.88
2023-01-17T18:11:50.066Z,72.96
2023-01-17T18:15:45.896Z,72.73
2023-01-17T18:19:30.756Z,72.95
2023-01-17T18:23:14.934Z,73.09
2023-01-17T18:26:51.896Z,72.95
2023-01-17T18:30:42.132Z,73.22
2023-01-17T18:34:09.189Z,73.43
2023-01-17T18:37:43.984Z,73.78
2023-01-17T18:41:26.893Z,74.24
2023-01-17T18:44:59.627Z,74.37
2023-01-17T18:48:39.066Z,74.34
2023-01-17T18:52:15.047Z,74.37
2023-01-17T18:56:14.591Z,74.44
2023-01-17T18:59:38.194Z,74.46
2023-01-17T19:03:35.956Z,74.07
2023-01-17T19:07:06.639Z,73.92
2023-01-17T19:10:56.171Z,74.11
2023-01-17T19:14:19.645Z,74.29
2023-01-17T19:18:16.596Z,74.81
2023-01-17T19:21:42.221Z,74.88
2023-01-17T19:25:39.933Z,74.98
2023-01-17T19:29:07.249Z,75.70
2023-01-17T19:32:43.427Z,76.18
2023-01-17T19:36:25.238Z,75.85
2023-01-17T19:39:59.883Z,75.97
2023-01-17T19:43:37.199Z,76.19
2023-01-17T19:47:14.365Z,76.23
2023-01-17T19:50:51.879Z,76.27
2023-01-17T19:54:47.938Z,76.57
2023-01-17T19:58:18.140Z,76.62
2023-01-17T20:01:52.542Z,76.34
2023-01-17T20:05:56.928Z,76.57
2023-01-17T20:09:41.929Z,76.84
2023-01-17T20:13:08.740Z,76.95
2023-01-17T20:16:47.730Z,76.78
2023-01-17T20:20:24.050Z,76.69
2023-01-17T20:24:01.392Z,76.42
2023-01-17T20:27:38.324Z,76.92
2023-01-17T20:31:39.878Z,77.21
2023-01-17T20:35:04.004Z,76.92
2023-01-17T20:38:48.772Z,77.03
2023-01-17T20:42:20.635Z,77.61
2023-01-17T20:45:58.683Z,77.59
2023-01-17T20:49:36.409Z,77.84
2023-01-17T20:53:33.074Z,77.90
2023-01-17T20:57:17.593Z,77.93
2023-01-17T21:01:01.711Z,77.80
2023-01-17T21:04:44.709Z,77.67
2023-01-17T21:08:09.510Z,77.78
2023-01-17T21:12:05.195Z,77.61
2023-01-17T21:15:33.976Z,77.81
2023-01-17T21:19:15.956Z,77.82
2023-01-17T21:23:08.952Z,78.13
2023-01-17T21:26:34.776Z,78.17
2023-01-17T21:30:13.181Z,78.13
2023-01-17T21:34:10.992Z,77.97
2023-01-17T21:37:35.978Z,77.47
2023-01-17T21:41:13.287Z,77.46
2023-01-17T21:44:50.500Z,77.31
2023-01-17T21:48:27.765Z,77.52
2023-01-17T21:52:05.244Z,77.85
2023-01-17T21:56:29.381Z,77.82
2023-01-17T21:59:54.947Z,77.72
2023-01-17T22:03:34.829Z,77.71
2023-01-17T22:07:10.387Z,78.25
2023-01-17T22:11:09.912Z,77.88
2023-01-17T22:14:52.959Z,77.89
2023-01-17T22:18:43.405Z,78.19
2023-01-17T22:22:26.631Z,78.27
2023-01-17T22:26:12.197Z,78.31
2023-01-17T22:29:54.660Z,78.34
2023-01-17T22:33:17.870Z,78.16
2023-01-17T22:36:55.654Z,78.37
2023-01-17T22:40:52.223Z,78.44
2023-01-17T22:44:17.903Z,78.64
2023-01-17T22:47:54.917Z,78.68
2023-01-17T22:51:51.203Z,78.79
2023-01-17T22:55:17.189Z,78.77
2023-01-17T22:59:12.947Z,78.77
2023-01-17T23:02:57.507Z,78.80
2023-01-17T23:06:30.382Z,78.83
2023-01-17T23:10:01.483Z,78.82
2023-01-17T23:13:39.417Z,78.66
2023-01-17T23:17:54.731Z,79.33
2023-01-17T23:21:56.415Z,79.32
2023-01-17T23:25:22.439Z,79.71
2023-01-17T23:28:59.124Z,80.00
2023-01-17T23:32:39.583Z,80.17
2023-01-17T23:36:13.135Z,80.23
2023-01-17T23:39:50.882Z,80.08
2023-01-17T23:43:52.745Z,80.28
2023-01-17T23:47:16.984Z,80.34
2023-01-17T23:51:08.341Z,80.35
2023-01-17T23:54:52.558Z,80.52
2023-01-17T23:58:37.552Z,80.72
